Time;durP1;ratioP1;P1;durP2;ratioP2;P2;SDS_P1;SDS_P2;PMS_P1;PMS_P2;Temp;Humidity;BMP_temperature;BMP_pressure;BME280_temperature;BME280_humidity;BME280_pressure;Samples;Min_cycle;Max_cycle;Signal;HPM_P1;HPM_P2
2023/09/14 00:00:04;;;;;;;0.10;0.10;;;;;;;9.48;100.00;102107.66;5115307;28;20095;-46
2023/09/14 00:02:29;;;;;;;0.20;0.20;;;;;;;9.46;100.00;102118.69;5115043;27;20020;-46
2023/09/14 00:04:54;;;;;;;0.20;0.20;;;;;;;9.59;100.00;102122.81;5114792;28;20096;-49
2023/09/14 00:07:20;;;;;;;0.10;0.10;;;;;;;9.58;100.00;102118.47;5115057;28;20068;-50
2023/09/14 00:09:45;;;;;;;0.10;0.10;;;;;;;9.63;100.00;102117.03;5115239;28;20572;-50
2023/09/14 00:12:10;;;;;;;0.20;0.20;;;;;;;9.64;100.00;102114.53;5114745;28;20343;-50
2023/09/14 00:14:36;;;;;;;0.10;0.10;;;;;;;9.59;100.00;102109.94;5114634;28;20486;-50
2023/09/14 00:17:01;;;;;;;0.20;0.20;;;;;;;9.60;100.00;102119.44;5114881;28;20022;-48
2023/09/14 00:19:26;;;;;;;0.10;0.10;;;;;;;9.55;100.00;102120.09;5114072;28;20420;-48
2023/09/14 00:21:52;;;;;;;0.20;0.20;;;;;;;9.63;100.00;102124.75;5115088;28;20016;-47
2023/09/14 00:24:18;;;;;;;0.10;0.10;;;;;;;9.60;100.00;102116.88;5114894;28;20023;-49
2023/09/14 00:26:43;;;;;;;0.10;0.10;;;;;;;9.55;100.00;102117.50;5114414;28;20414;-49
2023/09/14 00:29:08;;;;;;;0.10;0.10;;;;;;;9.59;100.00;102120.22;5114809;28;20019;-50
2023/09/14 00:31:36;;;;;;;0.10;0.10;;;;;;;9.61;100.00;102110.91;5114405;28;20023;-48
2023/09/14 00:34:01;;;;;;;0.20;0.20;;;;;;;9.61;100.00;102109.22;5114174;28;20035;-46
2023/09/14 00:36:26;;;;;;;0.20;0.20;;;;;;;9.56;100.00;102114.09;5114232;28;20501;-50
2023/09/14 00:38:52;;;;;;;0.17;0.17;;;;;;;9.59;100.00;102110.81;5114716;28;20027;-48
2023/09/14 00:41:17;;;;;;;0.10;0.10;;;;;;;9.56;100.00;102111.53;5113563;28;20016;-49
2023/09/14 00:43:42;;;;;;;0.20;0.20;;;;;;;9.60;100.00;102122.00;5114429;28;20390;-49
2023/09/14 00:46:07;;;;;;;0.10;0.10;;;;;;;9.56;100.00;102114.09;5113623;28;20493;-49
2023/09/14 00:48:35;;;;;;;0.17;0.17;;;;;;;9.55;100.00;102119.19;5113918;28;20050;-49
2023/09/14 00:51:01;;;;;;;0.10;0.10;;;;;;;9.52;100.00;102122.47;5114553;28;20099;-50
2023/09/14 00:53:27;;;;;;;0.10;0.10;;;;;;;9.53;100.00;102118.22;5113409;28;20031;-49
2023/09/14 00:55:52;;;;;;;0.20;0.20;;;;;;;9.51;100.00;102117.25;5114165;28;20027;-50
2023/09/14 00:58:18;;;;;;;0.20;0.20;;;;;;;9.50;100.00;102115.47;5113934;28;20028;-49
2023/09/14 01:00:45;;;;;;;0.20;0.20;;;;;;;9.40;100.00;102114.09;5113326;28;20047;-49
2023/09/14 01:03:13;;;;;;;0.10;0.10;;;;;;;9.40;100.00;102114.09;5114068;28;20039;-51
2023/09/14 01:05:39;;;;;;;;;;;;;;;9.52;100.00;102119.91;5114635;28;20019;-49
2023/09/14 01:08:05;;;;;;;0.10;0.10;;;;;;;9.36;100.00;102114.72;5113220;28;19912;-48
2023/09/14 01:10:30;;;;;;;0.20;0.20;;;;;;;9.31;100.00;102113.56;5113401;28;20026;-50
2023/09/14 01:12:56;;;;;;;0.10;0.10;;;;;;;9.17;100.00;102115.41;5114149;28;20050;-50
2023/09/14 01:15:29;;;;;;;0.15;0.15;;;;;;;9.10;100.00;102116.72;5112717;28;20106;-48
2023/09/14 01:18:23;;;;;;;0.20;0.20;;;;;;;9.20;100.00;102121.56;5114119;28;20035;-49
2023/09/14 01:21:15;;;;;;;0.20;0.20;;;;;;;9.19;100.00;102127.56;5113913;28;20035;-49
2023/09/14 01:24:05;;;;;;;0.20;0.20;;;;;;;9.02;100.00;102120.56;5113679;28;20374;-49
2023/09/14 01:26:32;;;;;;;0.13;0.13;;;;;;;9.00;100.00;102123.06;5113434;28;20465;-50
2023/09/14 01:28:59;;;;;;;0.20;0.20;;;;;;;8.96;100.00;102115.97;5113014;28;20089;-49
2023/09/14 01:31:24;;;;;;;0.10;0.10;;;;;;;8.94;100.00;102111.53;5113347;28;20651;-48
2023/09/14 01:33:50;;;;;;;0.20;0.20;;;;;;;8.99;100.00;102116.13;5113608;28;20089;-49
2023/09/14 01:36:15;;;;;;;0.10;0.10;;;;;;;8.78;100.00;102115.81;5112417;28;20026;-48
2023/09/14 01:38:42;;;;;;;0.20;0.20;;;;;;;8.72;100.00;102118.03;5113751;28;20463;-50
2023/09/14 01:41:09;;;;;;;0.10;0.10;;;;;;;8.66;100.00;102116.00;5113792;28;20019;-48
2023/09/14 01:43:35;;;;;;;0.20;0.20;;;;;;;8.63;100.00;102115.78;5112488;28;20432;-49
2023/09/14 01:46:02;;;;;;;0.10;0.10;;;;;;;8.63;100.00;102115.78;5113499;28;20467;-49
2023/09/14 01:48:27;;;;;;;0.10;0.10;;;;;;;8.66;100.00;102112.53;5113226;28;20024;-49
2023/09/14 01:50:52;;;;;;;0.10;0.10;;;;;;;8.64;100.00;102116.69;5112571;28;20050;-49
2023/09/14 01:53:18;;;;;;;0.17;0.17;;;;;;;8.63;100.00;102117.50;5113115;28;20470;-50
2023/09/14 01:55:43;;;;;;;0.20;0.20;;;;;;;8.57;100.00;102111.19;5113245;28;20502;-50
2023/09/14 01:58:10;;;;;;;0.20;0.20;;;;;;;8.55;100.00;102119.63;5112273;28;20053;-47
2023/09/14 02:00:35;;;;;;;0.20;0.20;;;;;;;8.59;100.00;102124.13;5112988;28;20031;-49
2023/09/14 02:03:00;;;;;;;0.20;0.20;;;;;;;8.62;100.00;102126.00;5113281;28;20019;-48
2023/09/14 02:05:26;;;;;;;0.15;0.15;;;;;;;8.66;100.00;102122.81;5112006;28;20375;-49
2023/09/14 02:07:51;;;;;;;0.10;0.10;;;;;;;8.68;100.00;102109.25;5113192;28;20034;-50
2023/09/14 02:10:19;;;;;;;0.10;0.10;;;;;;;8.63;100.00;102118.38;5113068;28;20024;-50
2023/09/14 02:12:45;;;;;;;0.17;0.17;;;;;;;8.59;100.00;102112.97;5112852;28;20098;-49
2023/09/14 02:15:10;;;;;;;0.20;0.20;;;;;;;8.51;100.00;102115.09;5113344;28;20111;-49
2023/09/14 02:17:36;;;;;;;0.10;0.10;;;;;;;8.59;100.00;102107.84;5112337;28;20024;-47
2023/09/14 02:20:02;;;;;;;0.10;0.10;;;;;;;8.68;100.00;102100.66;5113037;28;20070;-48
2023/09/14 02:22:28;;;;;;;0.10;0.10;;;;;;;8.55;100.00;102102.50;5116327;28;20020;-49
2023/09/14 02:24:53;;;;;;;0.10;0.10;;;;;;;8.59;100.00;102103.56;5116563;28;20023;-50
2023/09/14 02:27:18;;;;;;;0.10;0.10;;;;;;;8.58;100.00;102112.06;5116910;28;20491;-49
2023/09/14 02:29:44;;;;;;;0.17;0.17;;;;;;;8.52;100.00;102102.34;5117299;28;20024;-49
2023/09/14 02:32:09;;;;;;;0.10;0.10;;;;;;;8.54;100.00;102095.59;5116419;28;20027;-49
2023/09/14 02:34:35;;;;;;;0.20;0.20;;;;;;;8.53;100.00;102098.97;5116691;28;20020;-49
2023/09/14 02:37:02;;;;;;;0.20;0.20;;;;;;;8.54;100.00;102100.72;5117129;28;20031;-47
2023/09/14 02:39:27;;;;;;;0.10;0.10;;;;;;;8.55;100.00;102097.38;5116048;28;20045;-49
2023/09/14 02:41:53;;;;;;;0.10;0.10;;;;;;;8.54;100.00;102099.84;5116885;28;20031;-50
2023/09/14 02:44:18;;;;;;;0.10;0.10;;;;;;;8.50;100.00;102097.91;5116549;28;20024;-49
2023/09/14 02:46:43;;;;;;;0.10;0.10;;;;;;;8.57;100.00;102097.44;5116165;28;20103;-47
2023/09/14 02:49:09;;;;;;;0.20;0.20;;;;;;;8.54;100.00;102095.59;5116640;28;20047;-47
2023/09/14 02:51:35;;;;;;;0.20;0.20;;;;;;;8.49;100.00;102101.28;5116537;28;20028;-49
2023/09/14 02:54:00;;;;;;;0.17;0.17;;;;;;;8.49;100.00;102091.88;5116321;28;20053;-50
2023/09/14 02:56:25;;;;;;;0.20;0.20;;;;;;;8.39;100.00;102090.44;5116143;28;20108;-48
2023/09/14 02:58:51;;;;;;;0.20;0.20;;;;;;;8.43;100.00;102096.63;5116636;28;20392;-50
2023/09/14 03:01:17;;;;;;;0.20;0.20;;;;;;;8.41;100.00;102091.38;5115415;28;20095;-50
2023/09/14 03:03:42;;;;;;;0.13;0.13;;;;;;;8.40;100.00;102086.16;5116410;28;20084;-48
2023/09/14 03:06:08;;;;;;;0.20;0.20;;;;;;;8.35;100.00;102093.63;5116413;28;20092;-49
2023/09/14 03:08:33;;;;;;;0.20;0.20;;;;;;;8.31;100.00;102090.75;5115537;28;20062;-50
2023/09/14 03:10:59;;;;;;;0.20;0.20;;;;;;;8.31;100.00;102086.50;5116159;28;20103;-50
2023/09/14 03:13:25;;;;;;;0.20;0.20;;;;;;;8.31;100.00;102083.94;5116007;28;20032;-50
2023/09/14 03:15:55;;;;;;;0.10;0.10;;;;;;;8.29;100.00;102087.22;5115334;28;20031;-48
2023/09/14 03:18:21;;;;;;;0.10;0.10;;;;;;;8.29;100.00;102093.25;5115832;28;20016;-49
2023/09/14 03:20:50;;;;;;;0.20;0.20;;;;;;;8.22;100.00;102091.09;5115289;28;20026;-50
2023/09/14 03:23:15;;;;;;;0.10;0.10;;;;;;;8.24;100.00;102094.66;5115964;28;20048;-48
2023/09/14 03:25:40;;;;;;;0.15;0.15;;;;;;;8.25;100.00;102099.00;5116215;28;20032;-48
2023/09/14 03:28:06;;;;;;;0.20;0.20;;;;;;;8.27;100.00;102099.97;5115208;28;20012;-48
2023/09/14 03:30:33;;;;;;;0.20;0.20;;;;;;;8.26;100.00;102103.31;5115627;28;20046;-48
2023/09/14 03:32:58;;;;;;;0.17;0.17;;;;;;;8.29;100.00;102102.63;5115300;28;20145;-50
2023/09/14 03:35:23;;;;;;;0.20;0.20;;;;;;;8.27;100.00;102101.66;5114810;28;20494;-49
2023/09/14 03:37:49;;;;;;;0.20;0.20;;;;;;;8.24;100.00;102104.94;5115975;28;20026;-48
2023/09/14 03:40:14;;;;;;;0.20;0.20;;;;;;;8.16;100.00;102103.56;5115539;27;20094;-47
2023/09/14 03:42:40;;;;;;;0.20;0.20;;;;;;;8.23;100.00;102108.28;5114891;28;20044;-45
2023/09/14 03:45:06;;;;;;;0.20;0.20;;;;;;;8.10;100.00;102098.97;5115774;28;20046;-48
2023/09/14 03:47:31;;;;;;;0.20;0.20;;;;;;;8.07;100.00;102103.94;5115262;27;20431;-48
2023/09/14 03:49:56;;;;;;;0.20;0.20;;;;;;;8.13;100.00;102104.28;5114990;28;20046;-48
2023/09/14 03:52:21;;;;;;;0.20;0.20;;;;;;;8.03;100.00;102099.38;5115193;28;20035;-49
2023/09/14 03:54:47;;;;;;;0.20;0.20;;;;;;;8.05;100.00;102102.94;5115410;28;20138;-50
2023/09/14 03:57:15;;;;;;;0.20;0.20;;;;;;;8.01;100.00;102101.00;5114279;28;20044;-49
2023/09/14 03:59:42;;;;;;;0.20;0.20;;;;;;;8.06;100.00;102094.44;5115396;28;20020;-46
2023/09/14 04:02:08;;;;;;;0.15;0.15;;;;;;;8.04;100.00;102102.06;5115229;28;20080;-49
2023/09/14 04:04:34;;;;;;;0.15;0.15;;;;;;;8.00;100.00;102094.94;5114440;28;20051;-49
2023/09/14 04:06:59;;;;;;;0.15;0.15;;;;;;;8.00;100.00;102094.06;5115407;28;20059;-49
2023/09/14 04:09:29;;;;;;;0.20;0.20;;;;;;;7.97;100.00;102094.78;5115053;28;20026;-49
2023/09/14 04:11:54;;;;;;;0.10;0.10;;;;;;;7.96;100.00;102097.25;5114406;28;20470;-49
2023/09/14 04:14:20;;;;;;;0.20;0.20;;;;;;;7.88;100.00;102099.38;5114906;28;20077;-49
2023/09/14 04:16:46;;;;;;;0.20;0.20;;;;;;;7.93;100.00;102097.06;5114915;28;20367;-48
2023/09/14 04:19:12;;;;;;;0.20;0.20;;;;;;;7.91;100.00;102095.31;5114155;28;20032;-46
2023/09/14 04:21:38;;;;;;;0.20;0.20;;;;;;;7.83;100.00;102091.38;5114900;28;20023;-51
2023/09/14 04:24:03;;;;;;;0.17;0.17;;;;;;;7.93;100.00;102097.97;5114059;28;20027;-50
2023/09/14 04:26:29;;;;;;;0.13;0.13;;;;;;;7.83;100.00;102096.50;5114465;28;20039;-49
2023/09/14 04:28:54;;;;;;;0.20;0.20;;;;;;;7.82;100.00;102096.41;5114887;28;20027;-45
2023/09/14 04:31:19;;;;;;;0.20;0.20;;;;;;;7.84;100.00;102098.28;5113526;27;20028;-48
2023/09/14 04:33:45;;;;;;;0.17;0.17;;;;;;;7.82;100.00;102099.84;5114900;28;20041;-45
2023/09/14 04:36:10;;;;;;;0.10;0.10;;;;;;;7.80;100.00;102096.31;5114856;28;20470;-50
2023/09/14 04:38:35;;;;;;;0.20;0.20;;;;;;;7.77;100.00;102101.25;5113579;28;20035;-50
2023/09/14 04:41:04;;;;;;;0.20;0.20;;;;;;;7.81;100.00;102108.38;5114747;28;20034;-50
2023/09/14 04:43:32;;;;;;;0.20;0.20;;;;;;;7.79;100.00;102104.81;5113359;28;20019;-50
2023/09/14 04:46:01;;;;;;;0.20;0.20;;;;;;;7.68;100.00;102100.69;5113584;28;20019;-48
2023/09/14 04:48:26;;;;;;;0.20;0.20;;;;;;;7.66;100.00;102102.31;5114071;28;20467;-50
2023/09/14 04:50:55;;;;;;;0.20;0.20;;;;;;;7.61;100.00;102103.69;5114451;28;20056;-48
2023/09/14 04:53:20;;;;;;;0.20;0.20;;;;;;;7.57;100.00;102102.63;5113213;28;20110;-50
2023/09/14 04:55:46;;;;;;;0.20;0.20;;;;;;;7.65;100.00;102101.41;5114062;28;20489;-47
2023/09/14 04:58:12;;;;;;;0.20;0.20;;;;;;;7.62;100.00;102105.44;5114067;28;20035;-46
2023/09/14 05:00:37;;;;;;;0.20;0.20;;;;;;;7.63;100.00;102103.00;5113217;28;20074;-50
2023/09/14 05:03:04;;;;;;;0.20;0.20;;;;;;;7.57;100.00;102108.63;5114349;28;20023;-48
2023/09/14 05:05:32;;;;;;;0.20;0.20;;;;;;;7.60;100.00;102101.91;5113987;28;20028;-48
2023/09/14 05:07:57;;;;;;;0.20;0.20;;;;;;;7.61;100.00;102103.69;5113341;28;20019;-44
2023/09/14 05:10:22;;;;;;;0.17;0.17;;;;;;;7.62;100.00;102100.31;5113735;28;20034;-49
2023/09/14 05:12:48;;;;;;;0.30;0.30;;;;;;;7.63;100.00;102103.00;5113922;28;20020;-50
2023/09/14 05:15:13;;;;;;;0.20;0.20;;;;;;;7.55;100.00;102104.19;5112696;28;20462;-49
2023/09/14 05:17:39;;;;;;;0.20;0.20;;;;;;;7.52;100.00;102104.88;5113998;28;20111;-48
2023/09/14 05:20:07;;;;;;;0.20;0.20;;;;;;;7.48;100.00;102105.47;5113952;28;20081;-50
2023/09/14 05:22:33;;;;;;;0.10;0.10;;;;;;;7.54;100.00;102103.31;5112676;28;20020;-46
2023/09/14 05:24:58;;;;;;;0.20;0.20;;;;;;;7.55;100.00;102110.22;5113800;28;20036;-49
2023/09/14 05:27:25;;;;;;;0.10;0.10;;;;;;;7.56;100.00;102116.22;5112545;28;20019;-50
2023/09/14 05:29:50;;;;;;;0.20;0.20;;;;;;;7.53;100.00;102119.47;5113869;28;20054;-50
2023/09/14 05:32:15;;;;;;;0.10;0.10;;;;;;;7.57;100.00;102115.44;5113234;28;20047;-48
2023/09/14 05:34:41;;;;;;;0.20;0.20;;;;;;;7.65;100.00;102124.50;5112888;28;20490;-48
2023/09/14 05:37:06;;;;;;;0.20;0.20;;;;;;;7.64;100.00;102122.72;5113668;28;20050;-49
2023/09/14 05:39:32;;;;;;;0.10;0.10;;;;;;;7.67;100.00;102124.56;5113229;28;20043;-49
2023/09/14 05:41:57;;;;;;;0.15;0.15;;;;;;;7.73;100.00;102130.09;5112597;28;20031;-48
2023/09/14 05:44:22;;;;;;;0.20;0.20;;;;;;;7.75;100.00;102128.53;5113112;28;20025;-49
2023/09/14 05:46:47;;;;;;;0.10;0.10;;;;;;;7.78;100.00;102133.84;5113582;28;20020;-48
2023/09/14 05:49:13;;;;;;;0.15;0.15;;;;;;;7.86;100.00;102130.06;5112246;28;20513;-49
2023/09/14 05:51:38;;;;;;;0.28;0.28;;;;;;;7.89;100.00;102127.69;5113638;28;20055;-50
2023/09/14 05:54:04;;;;;;;0.13;0.13;;;;;;;7.95;100.00;102134.00;5113386;28;20152;-48
2023/09/14 05:56:29;;;;;;;0.15;0.15;;;;;;;8.00;100.00;102130.03;5111737;28;20084;-44
2023/09/14 05:58:54;;;;;;;0.20;0.20;;;;;;;8.06;100.00;102133.84;5113172;28;20385;-49
2023/09/14 06:01:20;;;;;;;0.20;0.20;;;;;;;8.08;100.00;102139.06;5112950;28;20105;-44
2023/09/14 06:03:45;;;;;;;0.20;0.20;;;;;;;8.09;100.00;102135.69;5112623;28;20020;-49
2023/09/14 06:06:10;;;;;;;0.20;0.20;;;;;;;8.23;100.00;102139.13;5113316;28;20023;-50
2023/09/14 06:08:37;;;;;;;0.20;0.20;;;;;;;8.29;100.00;102146.28;5113175;28;20032;-47
2023/09/14 06:11:02;;;;;;;0.20;0.20;;;;;;;8.43;100.00;102131.69;5112394;28;20028;-50
2023/09/14 06:13:28;;;;;;;0.20;0.20;;;;;;;8.50;100.00;102139.91;5112770;28;20128;-50
2023/09/14 06:15:54;;;;;;;0.20;0.20;;;;;;;8.64;100.00;102132.13;5113293;28;20031;-44
2023/09/14 06:18:19;;;;;;;0.13;0.13;;;;;;;8.63;100.00;102126.06;5112273;28;20024;-50
2023/09/14 06:20:44;;;;;;;0.20;0.20;;;;;;;8.72;100.00;102131.75;5113011;28;20020;-46
2023/09/14 06:23:10;;;;;;;0.20;0.20;;;;;;;8.88;100.00;102136.09;5113159;28;20028;-45
2023/09/14 06:25:35;;;;;;;0.17;0.17;;;;;;;8.99;100.00;102136.69;5111965;28;20431;-50
2023/09/14 06:28:00;;;;;;;0.20;0.20;;;;;;;9.11;100.00;102131.34;5113012;28;20531;-50
2023/09/14 06:30:26;;;;;;;0.20;0.20;;;;;;;9.28;100.00;102139.13;5112616;28;20462;-50
2023/09/14 06:32:52;;;;;;;0.20;0.20;;;;;;;9.46;100.00;102135.00;5112226;28;20039;-50
2023/09/14 06:35:17;;;;;;;0.20;0.20;;;;;;;9.78;100.00;102141.00;5112709;28;20024;-47
2023/09/14 06:37:42;;;;;;;0.20;0.20;;;;;;;9.85;100.00;102142.22;5112266;28;20114;-47
2023/09/14 06:40:08;;;;;;;0.30;0.30;;;;;;;10.09;100.00;102145.22;5112980;28;20149;-47
2023/09/14 06:42:34;;;;;;;0.10;0.10;;;;;;;10.27;100.00;102139.25;5112641;28;20028;-49
2023/09/14 06:45:00;;;;;;;0.20;0.20;;;;;;;10.37;100.00;102139.84;5112272;28;20031;-46
2023/09/14 06:47:26;;;;;;;0.10;0.10;;;;;;;10.51;100.00;102143.13;5112735;28;20344;-49
2023/09/14 06:49:51;;;;;;;0.20;0.20;;;;;;;10.68;100.00;102143.97;5113027;28;20187;-50
2023/09/14 06:52:16;;;;;;;0.10;0.10;;;;;;;10.73;100.00;102143.31;5111859;28;20027;-50
2023/09/14 06:54:42;;;;;;;0.20;0.20;;;;;;;10.92;100.00;102142.53;5112920;28;20112;-50
2023/09/14 06:57:07;;;;;;;0.30;0.30;;;;;;;10.94;100.00;102143.50;5112482;28;20047;-49
2023/09/14 06:59:33;;;;;;;0.10;0.10;;;;;;;11.07;100.00;102145.84;5111814;28;20027;-51
2023/09/14 07:01:59;;;;;;;0.20;0.20;;;;;;;11.20;100.00;102139.59;5112855;28;20473;-44
2023/09/14 07:04:24;;;;;;;0.10;0.10;;;;;;;11.32;100.00;102149.59;5112263;28;20471;-50
2023/09/14 07:06:49;;;;;;;0.10;0.10;;;;;;;11.45;100.00;102146.81;5112435;28;20034;-49
2023/09/14 07:09:15;;;;;;;0.20;0.20;;;;;;;11.63;100.00;102151.03;5116218;28;20030;-49
2023/09/14 07:11:40;;;;;;;0.10;0.10;;;;;;;11.75;100.00;102146.44;5116249;28;20034;-44
2023/09/14 07:14:06;;;;;;;0.10;0.10;;;;;;;11.90;100.00;102147.94;5115584;28;20050;-49
2023/09/14 07:16:31;;;;;;;0.00;0.00;;;;;;;12.03;100.00;102152.88;5115978;28;20031;-50
2023/09/14 07:18:56;;;;;;;0.10;0.10;;;;;;;12.22;100.00;102140.78;5116210;28;20024;-50
2023/09/14 07:21:22;;;;;;;0.20;0.20;;;;;;;12.34;100.00;102143.88;5114930;27;20023;-50
2023/09/14 07:23:47;;;;;;;0.17;0.17;;;;;;;12.54;100.00;102151.59;5116138;28;20016;-50
2023/09/14 07:26:12;;;;;;;0.10;0.10;;;;;;;12.74;100.00;102144.69;5115654;28;20471;-49
2023/09/14 07:28:38;;;;;;;0.10;0.10;;;;;;;12.82;100.00;102145.88;5115329;28;20022;-50
2023/09/14 07:31:05;;;;;;;0.10;0.10;;;;;;;12.94;100.00;102153.28;5116025;28;20051;-50
2023/09/14 07:33:31;;;;;;;0.10;0.10;;;;;;;13.10;100.00;102154.78;5115722;28;20051;-50
2023/09/14 07:35:56;;;;;;;0.10;0.10;;;;;;;13.20;100.00;102156.03;5114958;28;20444;-50
2023/09/14 07:38:21;;;;;;;0.17;0.17;;;;;;;13.43;100.00;102159.56;5115423;28;20038;-45
2023/09/14 07:40:50;;;;;;;0.10;0.10;;;;;;;13.58;100.00;102159.25;5115855;28;20107;-44
2023/09/14 07:43:15;;;;;;;0.10;0.10;;;;;;;13.75;100.00;102163.41;5114778;28;20080;-50
2023/09/14 07:45:40;;;;;;;0.10;0.10;;;;;;;13.85;100.00;102163.72;5115781;28;20538;-50
2023/09/14 07:48:07;;;;;;;0.10;0.10;;;;;;;13.90;100.00;102168.25;5114922;28;20024;-49
2023/09/14 07:50:39;;;;;;;0.10;0.10;;;;;;;14.03;100.00;102169.59;5115116;28;20024;-49
2023/09/14 07:53:05;;;;;;;0.10;0.10;;;;;;;14.08;100.00;102167.16;5115478;28;20043;-51
2023/09/14 07:55:31;;;;;;;0.10;0.10;;;;;;;14.18;100.00;102170.97;5114434;28;20374;-50
2023/09/14 07:57:56;;;;;;;0.10;0.10;;;;;;;14.29;100.00;102177.41;5115269;28;20561;-50
2023/09/14 08:00:21;;;;;;;0.10;0.10;;;;;;;14.51;100.00;102178.19;5115303;28;20026;-49
2023/09/14 08:02:46;;;;;;;0.10;0.10;;;;;;;14.57;100.00;102175.81;5114746;28;20534;-49
2023/09/14 08:05:12;;;;;;;0.10;0.10;;;;;;;14.74;100.00;102179.88;5114980;28;20443;-48
2023/09/14 08:07:37;;;;;;;0.10;0.10;;;;;;;14.78;100.00;102180.88;5115159;28;20032;-49
2023/09/14 08:10:03;;;;;;;0.10;0.10;;;;;;;14.78;100.00;102180.88;5114468;28;20506;-47
2023/09/14 08:12:28;;;;;;;0.10;0.10;;;;;;;14.92;100.00;102182.19;5115105;28;20023;-50
2023/09/14 08:14:54;;;;;;;0.10;0.10;;;;;;;15.00;100.00;102179.84;5115225;28;20076;-49
2023/09/14 08:17:19;;;;;;;0.10;0.10;;;;;;;15.15;100.00;102176.88;5114239;28;20011;-50
2023/09/14 08:19:44;;;;;;;0.10;0.10;;;;;;;15.29;100.00;102173.00;5115143;28;20115;-50
2023/09/14 08:22:10;;;;;;;0.10;0.10;;;;;;;15.46;100.00;102170.91;5114954;28;20489;-50
2023/09/14 08:24:35;;;;;;;0.10;0.10;;;;;;;15.52;100.00;102167.66;5113860;28;20031;-45
2023/09/14 08:27:00;;;;;;;0.10;0.10;;;;;;;15.64;100.00;102175.78;5114805;28;20374;-50
2023/09/14 08:29:26;;;;;;;0.10;0.10;;;;;;;15.64;100.00;102169.72;5114509;28;20074;-55
2023/09/14 08:31:51;;;;;;;0.10;0.10;;;;;;;15.66;100.00;102174.97;5114174;28;20043;-48
2023/09/14 08:34:16;;;;;;;0.10;0.10;;;;;;;15.86;100.00;102176.47;5114528;28;20016;-53
2023/09/14 08:36:42;;;;;;;0.00;0.00;;;;;;;15.93;100.00;102173.22;5114663;28;20038;-49
2023/09/14 08:39:07;;;;;;;0.10;0.10;;;;;;;16.11;100.00;102178.06;5113765;28;20039;-63
2023/09/14 08:41:37;;;;;;;0.10;0.10;;;;;;;16.26;100.00;102185.41;5114431;28;20055;-51
2023/09/14 08:44:06;;;;;;;0.10;0.10;;;;;;;16.49;100.00;102189.44;5114518;28;20030;-45
2023/09/14 08:46:33;;;;;;;0.10;0.10;;;;;;;16.58;100.00;102184.53;5113635;28;20027;-46
2023/09/14 08:48:59;;;;;;;0.10;0.10;;;;;;;16.79;100.00;102187.66;5114543;28;20144;-48
2023/09/14 08:51:27;;;;;;;0.00;0.00;;;;;;;16.93;100.00;102185.44;5113321;28;20030;-48
2023/09/14 08:53:52;;;;;;;0.10;0.10;;;;;;;17.19;100.00;102186.91;5114205;28;20215;-48
2023/09/14 08:56:20;;;;;;;0.10;0.10;;;;;;;17.14;100.00;102184.19;5113900;28;20082;-49
2023/09/14 08:58:46;;;;;;;0.10;0.10;;;;;;;17.19;100.00;102185.19;5113371;28;20374;-46
2023/09/14 09:01:13;;;;;;;0.00;0.00;;;;;;;17.21;100.00;102180.91;5114257;28;20466;-45
2023/09/14 09:03:39;;;;;;;0.10;0.10;;;;;;;17.47;100.00;102180.63;5114182;28;20051;-48
2023/09/14 09:06:04;;;;;;;0.10;0.10;;;;;;;17.46;100.00;102180.59;5113211;28;20044;-49
2023/09/14 09:08:30;;;;;;;0.00;0.00;;;;;;;17.46;100.00;102175.38;5113789;28;20045;-48
2023/09/14 09:10:56;;;;;;;0.10;0.10;;;;;;;17.52;100.00;102172.88;5114143;28;20042;-45
2023/09/14 09:13:22;;;;;;;0.10;0.10;;;;;;;17.96;100.00;102175.59;5113022;28;20024;-47
2023/09/14 09:15:48;;;;;;;0.10;0.10;;;;;;;17.89;100.00;102176.28;5113958;28;20024;-49
2023/09/14 09:18:13;;;;;;;0.10;0.10;;;;;;;17.88;100.00;102177.13;5113669;28;20050;-47
2023/09/14 09:20:41;;;;;;;0.10;0.10;;;;;;;17.87;100.00;102175.34;5113023;28;20028;-50
2023/09/14 09:23:07;;;;;;;;;;;;;;;18.08;100.00;102174.97;5114405;28;20027;-47
2023/09/14 09:25:47;;;;;;;0.10;0.10;;;;;;;18.12;100.00;102173.28;5113350;28;19938;-48
2023/09/14 09:28:13;;;;;;;0.10;0.10;;;;;;;18.42;100.00;102172.97;5112746;28;20038;-45
2023/09/14 09:30:39;;;;;;;0.10;0.10;;;;;;;18.49;98.69;102176.56;5113192;28;20033;-46
2023/09/14 09:33:04;;;;;;;0.00;0.00;;;;;;;18.65;99.35;102167.31;5113642;28;20015;-49
2023/09/14 09:35:30;;;;;;;0.10;0.10;;;;;;;19.22;98.53;102178.69;5112395;28;20432;-48
2023/09/14 09:38:00;;;;;;;0.00;0.00;;;;;;;19.38;93.89;102178.06;5113492;28;20470;-46
2023/09/14 09:40:33;;;;;;;0.10;0.10;;;;;;;20.38;90.76;102173.19;5113403;28;20046;-46
2023/09/14 09:43:07;;;;;;;0.00;0.00;;;;;;;20.21;88.70;102173.00;5113611;28;20034;-47
2023/09/14 09:45:33;;;;;;;0.00;0.00;;;;;;;19.93;86.02;102170.94;5113157;28;20111;-47
2023/09/14 09:48:02;;;;;;;0.00;0.00;;;;;;;19.37;88.47;102173.69;5112579;28;20087;-46
2023/09/14 09:50:28;;;;;;;0.00;0.00;;;;;;;19.78;91.00;102162.03;5113337;28;20028;-47
2023/09/14 09:52:53;;;;;;;0.00;0.00;;;;;;;20.30;86.98;102161.75;5113552;28;20420;-45
2023/09/14 09:55:24;;;;;;;0.00;0.00;;;;;;;19.79;81.63;102165.50;5112210;28;20470;-46
2023/09/14 09:57:55;;;;;;;0.00;0.00;;;;;;;20.27;80.65;102156.50;5113159;28;20047;-49
2023/09/14 10:00:26;;;;;;;0.00;0.00;;;;;;;21.57;74.82;102165.38;5112915;28;20042;-48
2023/09/14 10:02:53;;;;;;;0.00;0.00;;;;;;;21.97;68.49;102159.41;5112720;28;20023;-46
2023/09/14 10:05:29;;;;;;;0.00;0.00;;;;;;;22.80;66.55;102167.44;5113105;28;20026;-45
2023/09/14 10:07:57;;;;;;;0.00;0.00;;;;;;;23.02;55.11;102168.31;5113493;28;20067;-47
2023/09/14 10:10:27;;;;;;;0.00;0.00;;;;;;;22.80;57.28;102166.56;5112143;28;20028;-46
2023/09/14 10:12:53;;;;;;;0.00;0.00;;;;;;;22.30;60.70;102169.13;5113076;28;20058;-46
2023/09/14 10:15:19;;;;;;;0.00;0.00;;;;;;;22.13;64.58;102163.84;5112738;28;20370;-51
2023/09/14 10:17:51;;;;;;;0.00;0.00;;;;;;;22.61;60.97;102161.31;5112499;28;20335;-50
2023/09/14 10:20:17;;;;;;;0.00;0.00;;;;;;;22.50;58.12;102158.69;5113007;28;20103;-45
2023/09/14 10:22:43;;;;;;;0.00;0.00;;;;;;;22.87;55.07;102165.69;5112200;28;20043;-46
2023/09/14 10:25:09;;;;;;;0.00;0.00;;;;;;;23.22;50.89;102162.16;5113353;28;20031;-47
2023/09/14 10:27:34;;;;;;;0.00;0.00;;;;;;;23.20;50.95;102166.53;5112628;28;20012;-49
2023/09/14 10:30:03;;;;;;;0.00;0.00;;;;;;;23.23;51.42;102160.38;5112356;28;20023;-46
2023/09/14 10:32:29;;;;;;;0.00;0.00;;;;;;;23.28;51.19;102154.25;5112899;28;20020;-48
2023/09/14 10:34:59;;;;;;;0.00;0.00;;;;;;;23.21;52.51;102163.03;5112795;28;20034;-49
2023/09/14 10:37:26;;;;;;;0.00;0.00;;;;;;;23.51;51.79;102155.94;5111962;28;20482;-49
2023/09/14 10:39:53;;;;;;;0.00;0.00;;;;;;;23.40;52.13;102149.84;5112953;28;20020;-45
2023/09/14 10:42:18;;;;;;;0.00;0.00;;;;;;;25.26;49.39;102139.75;5113722;28;20024;-47
2023/09/14 10:44:44;;;;;;;0.00;0.00;;;;;;;24.97;44.21;102140.06;5116074;28;20019;-46
2023/09/14 10:47:11;;;;;;;0.00;0.00;;;;;;;25.18;44.75;102146.91;5116881;28;20031;-49
2023/09/14 10:49:41;;;;;;;;;;;;;;;25.84;51.28;102142.59;5117326;28;20061;-50
2023/09/14 10:52:06;;;;;;;0.00;0.00;;;;;;;25.96;43.39;102139.81;5116094;28;19915;-51
2023/09/14 10:54:32;;;;;;;0.00;0.00;;;;;;;26.00;42.00;102130.03;5116289;28;20023;-52
2023/09/14 10:56:59;;;;;;;0.00;0.00;;;;;;;26.15;42.44;102136.91;5116493;28;20075;-49
2023/09/14 10:59:54;;;;;;;0.00;0.00;;;;;;;26.81;45.13;102137.63;5115596;28;20138;-50
2023/09/14 11:02:43;;;;;;;0.00;0.00;;;;;;;26.87;43.90;102133.97;5113787;28;20084;-47
2023/09/14 11:05:18;;;;;;;0.00;0.00;;;;;;;26.33;42.70;102132.25;5104945;27;20039;-50
2023/09/14 11:07:48;;;;;;;0.00;0.00;;;;;;;26.94;40.31;102125.88;5116479;28;20056;-46
2023/09/14 11:10:17;;;;;;;0.00;0.00;;;;;;;26.92;40.04;102132.13;5116108;28;20020;-50
2023/09/14 11:12:43;;;;;;;0.00;0.00;;;;;;;27.24;39.82;102123.56;5115575;28;20032;-46
2023/09/14 11:15:16;;;;;;;0.00;0.00;;;;;;;27.80;40.22;102129.47;5116565;28;20042;-48
2023/09/14 11:17:43;;;;;;;0.00;0.00;;;;;;;28.04;36.76;102126.31;5116232;28;20059;-47
2023/09/14 11:20:20;;;;;;;0.00;0.00;;;;;;;28.49;38.87;102135.81;5115577;28;20024;-50